Time;durP1;ratioP1;P1;durP2;ratioP2;P2;SDS_P1;SDS_P2;PMS_P1;PMS_P2;Temp;Humidity;BMP_temperature;BMP_pressure;BME280_temperature;BME280_humidity;BME280_pressure;Samples;Min_cycle;Max_cycle;Signal;HPM_P1;HPM_P2
2022/07/31 00:01:24;;;;;;;1.98;1.50;;;;;;;16.49;82.38;98658.75;5066241;28;20166;-68
2022/07/31 00:03:50;;;;;;;2.03;1.27;;;;;;;16.46;82.80;98658.88;5066229;28;20025;-68
2022/07/31 00:06:17;;;;;;;6.00;2.08;;;;;;;16.41;83.30;98661.69;5066453;28;20024;-68
2022/07/31 00:08:42;;;;;;;3.10;1.80;;;;;;;16.37;82.52;98662.78;5065891;28;20032;-68
2022/07/31 00:11:10;;;;;;;2.47;1.52;;;;;;;16.26;83.41;98657.03;5046881;28;20022;-68
2022/07/31 00:13:36;;;;;;;2.20;1.40;;;;;;;16.30;84.44;98653.31;5048057;28;20340;-68
2022/07/31 00:16:01;;;;;;;2.00;1.35;;;;;;;16.28;83.93;98649.00;5046811;28;20035;-68
2022/07/31 00:18:26;;;;;;;4.93;1.70;;;;;;;16.23;84.54;98653.66;5048711;28;20093;-68
2022/07/31 00:20:52;;;;;;;4.28;1.40;;;;;;;16.20;83.95;98651.13;5066029;28;20071;-68
2022/07/31 00:23:17;;;;;;;2.25;1.42;;;;;;;16.16;84.29;98645.06;5064564;28;20046;-68
2022/07/31 00:25:42;;;;;;;5.45;1.52;;;;;;;15.95;85.03;98645.94;5055135;28;20248;-68
2022/07/31 00:28:08;;;;;;;2.53;1.50;;;;;;;15.94;85.30;98649.50;5046389;28;20048;-68
2022/07/31 00:30:33;;;;;;;4.00;1.98;;;;;;;16.00;84.84;98649.28;5064888;28;20033;-68
2022/07/31 00:32:58;;;;;;;3.95;1.35;;;;;;;16.02;84.75;98644.78;5065955;28;20339;-68
2022/07/31 00:35:24;;;;;;;2.08;1.65;;;;;;;16.02;84.66;98652.75;5049402;28;20021;-68
2022/07/31 00:37:49;;;;;;;3.63;1.60;;;;;;;15.94;84.79;98638.91;5046489;28;20025;-68
2022/07/31 00:40:16;;;;;;;2.85;1.60;;;;;;;15.83;85.12;98637.59;5065974;28;20328;-68
2022/07/31 00:42:42;;;;;;;3.92;1.58;;;;;;;15.84;85.17;98634.91;5065647;28;20036;-68
2022/07/31 00:45:09;;;;;;;3.72;1.40;;;;;;;15.84;85.09;98642.84;5064348;28;20044;-68
2022/07/31 00:47:34;;;;;;;4.13;1.90;;;;;;;15.60;85.99;98632.34;5046482;28;20216;-68
2022/07/31 00:50:00;;;;;;;2.45;1.65;;;;;;;15.54;86.08;98628.16;5063115;28;20029;-68
2022/07/31 00:52:25;;;;;;;5.72;1.73;;;;;;;15.48;86.18;98633.72;5065515;28;20024;-68
2022/07/31 00:54:50;;;;;;;5.68;1.70;;;;;;;15.46;86.44;98635.53;5065540;28;20025;-68
2022/07/31 00:57:16;;;;;;;8.70;1.80;;;;;;;15.41;86.24;98634.84;5065438;28;20032;-68
2022/07/31 00:59:42;;;;;;;2.97;1.60;;;;;;;15.45;86.53;98628.50;5050886;28;20027;-68
2022/07/31 01:02:08;;;;;;;5.07;1.50;;;;;;;15.30;87.04;98626.41;5046265;28;20071;-68
2022/07/31 01:04:33;;;;;;;5.03;1.42;;;;;;;15.28;87.78;98636.19;5045903;28;20017;-68
2022/07/31 01:06:59;;;;;;;2.65;1.60;;;;;;;15.39;87.85;98634.06;5047017;28;20030;-68
2022/07/31 01:09:25;;;;;;;3.42;1.58;;;;;;;15.40;87.49;98630.47;5054275;28;20029;-68
2022/07/31 01:12:11;;;;;;;3.17;1.80;;;;;;;15.39;87.33;98628.75;5064967;28;20036;-68
2022/07/31 01:14:58;;;;;;;2.22;1.85;;;;;;;15.29;88.69;98632.66;5048856;28;20317;-68
2022/07/31 01:17:28;;;;;;;2.33;1.60;;;;;;;15.25;88.59;98631.00;5048084;28;20331;-68
2022/07/31 01:19:53;;;;;;;2.65;1.58;;;;;;;15.21;88.98;98634.72;5065055;28;20036;-68
2022/07/31 01:22:43;;;;;;;4.95;1.60;;;;;;;15.22;89.03;98625.81;5064697;28;20025;-68
2022/07/31 01:25:16;;;;;;;5.78;2.05;;;;;;;15.37;88.50;98633.25;5065024;28;20035;-68
2022/07/31 01:28:02;;;;;;;4.53;1.65;;;;;;;15.39;87.87;98634.06;5063110;28;20045;-68
2022/07/31 01:30:34;;;;;;;2.42;1.70;;;;;;;15.39;87.75;98628.75;5064523;28;20337;-68
2022/07/31 01:33:07;;;;;;;5.73;1.80;;;;;;;15.38;87.38;98632.34;5052181;28;20054;-68
2022/07/31 01:35:41;;;;;;;4.00;1.60;;;;;;;15.01;88.96;98629.31;5053245;28;20325;-68
2022/07/31 01:38:18;;;;;;;3.03;1.67;;;;;;;15.13;88.91;98632.34;5053206;28;20021;-68
2022/07/31 01:40:47;;;;;;;3.17;1.80;;;;;;;15.16;88.96;98628.72;5045299;28;20017;-68
2022/07/31 01:43:24;;;;;;;4.10;2.00;;;;;;;15.16;88.87;98626.09;5045201;28;20202;-68
2022/07/31 01:45:56;;;;;;;3.15;1.92;;;;;;;15.15;88.58;98624.34;5045151;28;20021;-68
2022/07/31 01:48:22;;;;;;;;;;;;;;;15.12;88.70;98629.75;5049321;28;20071;-68
2022/07/31 01:50:50;;;;;;;2.63;1.70;;;;;;;14.90;89.18;98628.81;5044988;28;20148;-68
2022/07/31 01:53:21;;;;;;;2.13;1.45;;;;;;;14.87;89.67;98635.09;5044941;28;20087;-68
2022/07/31 01:55:51;;;;;;;4.70;1.50;;;;;;;14.92;89.79;98629.63;5044958;28;20083;-68
2022/07/31 01:58:19;;;;;;;7.45;1.85;;;;;;;14.93;89.62;98628.69;5061246;28;20025;-68
2022/07/31 02:00:46;;;;;;;3.95;1.90;;;;;;;14.95;89.54;98627.75;5063960;28;20025;-68
2022/07/31 02:03:13;;;;;;;1.98;1.60;;;;;;;14.89;89.78;98632.38;5064255;28;20033;-68
2022/07/31 02:05:40;;;;;;;5.05;1.60;;;;;;;14.81;90.27;98639.78;5064009;28;20320;-68
2022/07/31 02:08:08;;;;;;;2.97;1.50;;;;;;;14.65;90.93;98634.13;5044637;28;20021;-68
2022/07/31 02:10:34;;;;;;;4.10;2.03;;;;;;;14.75;91.32;98634.69;5051181;28;20028;-68
2022/07/31 02:13:04;;;;;;;2.80;1.95;;;;;;;14.70;91.10;98631.31;5063790;28;20017;-68
2022/07/31 02:15:31;;;;;;;6.25;2.00;;;;;;;14.67;91.13;98621.72;5064009;28;20021;-68
2022/07/31 02:17:57;;;;;;;5.00;1.80;;;;;;;14.66;91.05;98624.41;5046891;28;20048;-68
2022/07/31 02:20:24;;;;;;;3.90;1.98;;;;;;;14.58;91.06;98623.81;5044418;28;20060;-68
2022/07/31 02:22:49;;;;;;;3.22;1.92;;;;;;;14.65;91.61;98623.53;5060186;28;20032;-68
2022/07/31 02:25:15;;;;;;;3.53;1.85;;;;;;;14.63;91.35;98613.94;5062181;28;20218;-68
2022/07/31 02:27:42;;;;;;;3.08;1.80;;;;;;;14.56;91.43;98615.06;5063607;28;20047;-68
2022/07/31 02:30:09;;;;;;;3.55;1.48;;;;;;;14.57;91.63;98616.78;5063419;28;20384;-68
2022/07/31 02:32:35;;;;;;;2.88;1.70;;;;;;;14.54;91.40;98609.81;5063726;28;20090;-68
2022/07/31 02:35:02;;;;;;;4.25;1.60;;;;;;;14.41;90.69;98608.53;5061059;28;20031;-68
2022/07/31 02:37:29;;;;;;;5.50;1.80;;;;;;;14.16;91.99;98606.72;5045499;28;20071;-68
2022/07/31 02:39:56;;;;;;;3.85;1.50;;;;;;;14.16;92.54;98609.38;5044437;28;20028;-68
2022/07/31 02:42:22;;;;;;;2.70;1.50;;;;;;;14.23;93.12;98613.56;5044504;28;20210;-68
2022/07/31 02:44:49;;;;;;;3.15;1.75;;;;;;;14.29;92.10;98611.59;5049921;28;20212;-68
2022/07/31 02:47:15;;;;;;;1.83;1.60;;;;;;;14.29;92.15;98613.38;5044444;28;20298;-68
2022/07/31 02:49:41;;;;;;;6.25;2.45;;;;;;;14.29;92.30;98614.25;5044025;28;20289;-68
2022/07/31 02:52:08;;;;;;;3.80;2.00;;;;;;;14.28;92.66;98612.53;5045250;28;20067;-68
2022/07/31 02:54:38;;;;;;;4.90;1.90;;;;;;;14.19;92.83;98606.63;5043979;28;20029;-68
2022/07/31 02:57:03;;;;;;;3.42;1.85;;;;;;;14.23;93.41;98608.28;5060987;28;20028;-68
2022/07/31 02:59:29;;;;;;;4.32;1.83;;;;;;;14.25;93.18;98614.41;5063376;28;20075;-68
2022/07/31 03:01:54;;;;;;;3.05;1.90;;;;;;;14.19;93.14;98610.16;5063342;28;20016;-68
2022/07/31 03:04:20;;;;;;;2.50;1.88;;;;;;;14.17;92.97;98603.16;5063016;28;20033;-68
2022/07/31 03:06:47;;;;;;;4.72;1.80;;;;;;;14.18;93.31;98610.19;5048663;28;20032;-68
2022/07/31 03:09:13;;;;;;;5.53;1.90;;;;;;;14.16;93.23;98612.03;5058162;28;20024;-68
2022/07/31 03:11:39;;;;;;;3.88;1.92;;;;;;;14.05;93.05;98609.72;5062962;28;20071;-68
2022/07/31 03:14:06;;;;;;;3.42;2.40;;;;;;;14.04;93.35;98608.00;5063216;28;20096;-68
2022/07/31 03:16:33;;;;;;;3.92;1.70;;;;;;;14.01;93.52;98612.53;5047141;28;20383;-68
2022/07/31 03:19:00;;;;;;;2.70;2.00;;;;;;;13.93;93.64;98612.81;5063409;28;20040;-68
2022/07/31 03:21:26;;;;;;;3.88;2.05;;;;;;;14.00;93.72;98616.09;5057262;28;20026;-68
2022/07/31 03:23:52;;;;;;;3.85;2.00;;;;;;;13.96;93.82;98610.06;5043722;28;20040;-68
2022/07/31 03:26:17;;;;;;;3.47;2.10;;;;;;;13.90;94.09;98610.25;5055271;28;20029;-68
2022/07/31 03:28:43;;;;;;;3.25;1.77;;;;;;;13.94;93.97;98608.38;5062826;28;20288;-68
2022/07/31 03:31:09;;;;;;;1.98;1.63;;;;;;;13.97;93.76;98613.56;5056115;28;20093;-68
2022/07/31 03:33:34;;;;;;;3.78;2.10;;;;;;;13.86;94.13;98608.63;5043643;28;20317;-68
2022/07/31 03:35:59;;;;;;;4.45;2.30;;;;;;;13.90;93.87;98601.44;5043891;28;20018;-68
2022/07/31 03:38:25;;;;;;;2.72;1.90;;;;;;;13.88;94.17;98611.22;5043590;28;20025;-68
2022/07/31 03:40:51;;;;;;;3.80;2.13;;;;;;;13.97;94.04;98610.91;5044994;28;20017;-68
2022/07/31 03:43:18;;;;;;;4.93;2.28;;;;;;;13.93;94.40;98609.28;5043529;28;20331;-68
2022/07/31 03:45:44;;;;;;;4.35;2.17;;;;;;;14.00;94.74;98621.41;5048827;28;20032;-68
2022/07/31 03:48:10;;;;;;;15.82;2.35;;;;;;;14.05;94.50;98614.19;5043506;28;20096;-68
2022/07/31 03:50:36;;;;;;;2.85;2.05;;;;;;;14.05;94.20;98608.88;5049147;28;20221;-68
2022/07/31 03:53:03;;;;;;;7.05;2.15;;;;;;;14.02;93.27;98609.00;5062653;28;20024;-68
2022/07/31 03:55:29;;;;;;;2.50;2.00;;;;;;;13.77;94.25;98608.94;5043499;28;20052;-68
2022/07/31 03:57:57;;;;;;;4.63;2.00;;;;;;;13.70;95.38;98609.19;5047232;28;20018;-68
2022/07/31 04:00:26;;;;;;;4.38;2.10;;;;;;;13.69;94.95;98604.78;5048339;28;20029;-68
2022/07/31 04:02:53;;;;;;;4.95;2.30;;;;;;;13.65;96.39;98603.16;5047353;28;20025;-68
2022/07/31 04:05:18;;;;;;;2.28;1.92;;;;;;;13.74;96.00;98603.75;5062912;28;20316;-68
2022/07/31 04:07:43;;;;;;;3.15;1.85;;;;;;;13.83;95.62;98599.94;5058241;28;20103;-68
2022/07/31 04:10:09;;;;;;;5.30;2.33;;;;;;;13.93;95.50;98609.28;5057853;28;20313;-68
2022/07/31 04:12:34;;;;;;;6.30;2.03;;;;;;;13.99;95.04;98609.09;5066264;28;20275;-68
2022/07/31 04:15:00;;;;;;;2.88;2.10;;;;;;;14.03;94.57;98613.34;5066077;28;20063;-68
2022/07/31 04:17:25;;;;;;;5.85;2.15;;;;;;;14.02;94.95;98606.34;5066226;28;20021;-68
2022/07/31 04:19:50;;;;;;;8.10;3.00;;;;;;;14.11;94.29;98608.69;5058719;28;20025;-68
2022/07/31 04:22:16;;;;;;;5.68;2.45;;;;;;;14.16;94.10;98606.72;5046736;28;20036;-68
2022/07/31 04:24:41;;;;;;;3.13;1.92;;;;;;;14.16;93.84;98606.72;5046762;28;20048;-68
2022/07/31 04:27:07;;;;;;;5.13;1.83;;;;;;;14.20;93.27;98613.63;5046521;28;20049;-68
2022/07/31 04:29:33;;;;;;;2.00;1.75;;;;;;;14.19;93.69;98611.91;5054525;28;20237;-68
2022/07/31 04:31:58;;;;;;;3.70;1.80;;;;;;;14.20;93.44;98618.94;5065354;28;20025;-68
2022/07/31 04:34:24;;;;;;;3.45;1.98;;;;;;;14.26;93.16;98617.00;5065927;28;20025;-68
2022/07/31 04:36:49;;;;;;;4.45;2.05;;;;;;;14.27;93.72;98615.22;5065657;28;20100;-68
2022/07/31 04:39:15;;;;;;;2.63;1.98;;;;;;;14.26;93.98;98613.47;5059529;28;20063;-68
2022/07/31 04:41:40;;;;;;;7.18;2.85;;;;;;;14.38;93.77;98621.88;5046467;28;20030;-68
2022/07/31 04:44:05;;;;;;;8.27;2.33;;;;;;;14.50;93.63;98623.22;5046375;28;20037;-68
2022/07/31 04:46:31;;;;;;;3.17;2.08;;;;;;;14.60;92.71;98624.63;5046312;28;20052;-68
2022/07/31 04:48:56;;;;;;;4.22;2.05;;;;;;;14.66;92.74;98624.41;5047436;28;20309;-68
2022/07/31 04:51:23;;;;;;;3.53;2.10;;;;;;;14.71;92.17;98625.09;5046223;28;20238;-68
2022/07/31 04:53:49;;;;;;;2.42;1.70;;;;;;;14.75;91.81;98630.22;5047273;28;20025;-68
2022/07/31 04:56:32;;;;;;;4.75;1.88;;;;;;;14.76;91.86;98624.03;5046138;28;20035;-68
2022/07/31 04:58:59;;;;;;;2.47;1.90;;;;;;;14.88;91.76;98625.38;5046571;28;20025;-68
2022/07/31 05:01:24;;;;;;;3.38;1.85;;;;;;;14.92;91.41;98621.69;5046040;28;20021;-68
2022/07/31 05:03:50;;;;;;;3.03;1.85;;;;;;;14.95;91.50;98621.56;5046264;28;20089;-68
2022/07/31 05:06:15;;;;;;;4.05;2.08;;;;;;;15.02;91.35;98631.00;5049712;28;20036;-68
2022/07/31 05:08:41;;;;;;;4.15;1.98;;;;;;;15.09;91.53;98620.13;5052109;28;20029;-68
2022/07/31 05:11:21;;;;;;;4.18;1.70;;;;;;;15.17;91.78;98622.50;5045731;28;20071;-68
2022/07/31 05:13:54;;;;;;;3.42;2.20;;;;;;;15.18;92.46;98618.91;5045789;28;20353;-68
2022/07/31 05:16:20;;;;;;;3.40;2.30;;;;;;;15.21;92.49;98626.75;5053824;28;20388;-68
2022/07/31 05:18:46;;;;;;;5.60;2.25;;;;;;;15.29;91.81;98627.34;5046827;28;20025;-68
2022/07/31 05:21:13;;;;;;;4.75;2.10;;;;;;;15.33;91.55;98623.66;5045637;28;20044;-68
2022/07/31 05:23:39;;;;;;;3.58;2.20;;;;;;;15.31;91.77;98625.47;5045624;28;20029;-68
2022/07/31 05:26:05;;;;;;;3.58;1.88;;;;;;;15.33;90.53;98613.03;5045890;28;20340;-68
2022/07/31 05:28:31;;;;;;;3.42;2.20;;;;;;;15.32;90.49;98619.28;5045920;28;20029;-68
2022/07/31 05:30:57;;;;;;;4.10;2.03;;;;;;;15.26;91.09;98622.16;5045357;28;20048;-68
2022/07/31 05:33:22;;;;;;;3.80;2.20;;;;;;;15.34;90.28;98624.53;5045415;28;20025;-68
2022/07/31 05:35:48;;;;;;;3.17;2.03;;;;;;;15.51;89.86;98622.97;5045568;28;20017;-68
2022/07/31 05:38:13;;;;;;;2.25;2.03;;;;;;;15.68;89.49;98625.81;5058637;28;20371;-68
2022/07/31 05:40:38;;;;;;;4.72;1.95;;;;;;;16.05;87.91;98625.19;5052562;28;20328;-68
2022/07/31 05:43:04;;;;;;;3.08;2.03;;;;;;;16.24;88.04;98620.84;5064298;28;20139;-68
2022/07/31 05:45:29;;;;;;;3.80;2.35;;;;;;;17.51;84.10;98631.97;5064582;28;20111;-68
2022/07/31 05:47:54;;;;;;;3.00;1.90;;;;;;;18.85;78.57;98628.75;5064773;28;20021;-68
2022/07/31 05:50:20;;;;;;;3.28;2.00;;;;;;;20.55;73.00;98633.38;5060905;28;20021;-68
2022/07/31 05:52:48;;;;;;;2.45;1.60;;;;;;;21.71;67.28;98633.28;5057353;28;20078;-68
2022/07/31 05:55:14;;;;;;;6.50;2.10;;;;;;;21.77;65.47;98631.09;5064311;28;20028;-68
2022/07/31 05:57:39;;;;;;;5.80;1.90;;;;;;;20.92;66.87;98622.16;5064348;28;20028;-68
2022/07/31 06:00:05;;;;;;;3.38;1.85;;;;;;;20.39;69.76;98613.84;5053284;28;20190;-68
2022/07/31 06:02:30;;;;;;;3.67;1.90;;;;;;;20.13;70.68;98613.63;5044783;28;20056;-68
2022/07/31 06:04:56;;;;;;;2.88;1.83;;;;;;;20.23;69.80;98615.69;5061392;28;20255;-68
2022/07/31 06:07:21;;;;;;;3.25;1.60;;;;;;;20.22;71.11;98613.94;5062808;28;20021;-68
2022/07/31 06:09:46;;;;;;;2.95;1.60;;;;;;;20.78;69.32;98613.25;5055427;28;20021;-68
2022/07/31 06:12:12;;;;;;;4.55;2.00;;;;;;;20.79;69.56;98626.53;5044704;28;20033;-68
2022/07/31 06:14:37;;;;;;;2.70;1.65;;;;;;;21.59;67.15;98632.25;5044580;28;20021;-68
2022/07/31 06:17:06;;;;;;;2.50;1.73;;;;;;;22.15;66.54;98640.19;5044607;28;20313;-68
2022/07/31 06:19:32;;;;;;;7.45;2.15;;;;;;;24.02;60.07;98633.31;5048578;28;20044;-68
2022/07/31 06:21:58;;;;;;;3.55;1.63;;;;;;;24.46;56.39;98638.91;5063910;28;20087;-68
2022/07/31 06:24:24;;;;;;;2.50;1.60;;;;;;;24.63;55.87;98634.97;5063594;28;20032;-68
2022/07/31 06:26:50;;;;;;;3.83;1.63;;;;;;;24.28;57.08;98629.56;5058420;28;20021;-68
2022/07/31 06:29:16;;;;;;;3.72;1.67;;;;;;;23.14;59.62;98608.34;5046023;28;20101;-68
2022/07/31 06:31:41;;;;;;;7.63;2.00;;;;;;;22.21;63.08;98617.50;5050877;28;20036;-68
2022/07/31 06:34:07;;;;;;;3.33;1.73;;;;;;;22.32;64.04;98614.97;5044347;28;20035;-68
2022/07/31 06:36:32;;;;;;;6.20;2.08;;;;;;;22.47;63.28;98613.94;5060486;28;20029;-68
2022/07/31 06:38:57;;;;;;;3.63;1.92;;;;;;;21.88;64.19;98614.34;5061076;28;20241;-68
2022/07/31 06:44:06;;;;;;;5.13;2.33;;;;;;;24.63;59.16;98646.59;5053378;28;20033;-68
2022/07/31 06:46:32;;;;;;;4.40;1.90;;;;;;;26.28;54.81;98655.88;5044173;28;20037;-68
2022/07/31 06:48:57;;;;;;;4.65;1.98;;;;;;;27.11;50.79;98660.47;5049596;28;20021;-68
2022/07/31 06:51:23;;;;;;;6.43;1.95;;;;;;;27.81;49.89;98661.47;5046874;28;20029;-68
2022/07/31 06:53:48;;;;;;;2.25;1.60;;;;;;;28.92;48.54;98664.75;5044079;28;20025;-69
2022/07/31 06:56:13;;;;;;;7.82;2.00;;;;;;;29.38;45.93;98658.59;5044044;28;20220;-69
2022/07/31 06:58:39;;;;;;;4.95;1.85;;;;;;;29.87;46.08;98665.63;5054580;28;20021;-69
2022/07/31 07:01:04;;;;;;;5.05;1.70;;;;;;;29.93;45.12;98671.28;5043987;28;20097;-69
2022/07/31 07:03:29;;;;;;;3.42;1.92;;;;;;;30.27;44.19;98668.88;5043944;28;20040;-69
2022/07/31 07:05:55;;;;;;;3.92;1.70;;;;;;;30.49;43.28;98669.31;5043867;28;20025;-68
2022/07/31 07:08:20;;;;;;;2.97;1.80;;;;;;;31.09;41.46;98657.72;5047188;28;20096;-68
2022/07/31 07:10:46;;;;;;;5.43;1.95;;;;;;;30.67;40.79;98655.75;5063212;28;20325;-68
2022/07/31 07:13:11;;;;;;;5.30;1.90;;;;;;;30.83;41.28;98650.50;5061681;28;20025;-68
2022/07/31 07:15:36;;;;;;;2.75;1.75;;;;;;;31.02;40.85;98655.78;5063444;28;20031;-68
2022/07/31 07:18:02;;;;;;;7.30;2.20;;;;;;;31.09;39.18;98645.97;5062519;28;20062;-69
2022/07/31 07:20:27;;;;;;;6.40;2.25;;;;;;;31.47;39.41;98656.50;5043707;28;20383;-69
2022/07/31 07:22:52;;;;;;;6.57;2.03;;;;;;;32.12;38.64;98657.75;5043776;28;20021;-69
2022/07/31 07:25:19;;;;;;;8.07;1.77;;;;;;;31.29;37.28;98644.84;5043710;28;20041;-69
2022/07/31 07:27:45;;;;;;;3.45;2.28;;;;;;;31.92;39.00;98657.13;5043550;28;20061;-69
2022/07/31 07:30:11;;;;;;;7.30;1.80;;;;;;;31.79;35.91;98647.69;5062613;28;20035;-69
2022/07/31 07:32:36;;;;;;;5.78;1.80;;;;;;;31.50;36.51;98649.91;5060422;28;20021;-69
2022/07/31 07:35:02;;;;;;;4.15;1.80;;;;;;;31.83;36.56;98651.84;5047666;28;20336;-69
2022/07/31 07:37:28;;;;;;;10.00;2.10;;;;;;;31.54;36.58;98634.97;5057946;28;20268;-69
2022/07/31 07:39:54;;;;;;;7.32;2.08;;;;;;;30.09;37.95;98629.94;5064651;28;20020;-69
2022/07/31 07:42:19;;;;;;;6.05;2.13;;;;;;;29.74;38.77;98632.53;5066438;28;20017;-69
2022/07/31 07:44:45;;;;;;;9.55;1.83;;;;;;;29.43;39.66;98614.78;5066657;28;20028;-69
2022/07/31 07:47:10;;;;;;;4.95;1.98;;;;;;;30.00;38.89;98618.16;5061176;28;20256;-69
2022/07/31 07:49:35;;;;;;;2.58;1.67;;;;;;;30.24;38.18;98620.31;5047270;28;20025;-69
2022/07/31 07:52:01;;;;;;;4.18;1.77;;;;;;;30.69;38.39;98621.13;5065253;28;20344;-69
2022/07/31 07:54:27;;;;;;;4.85;1.90;;;;;;;30.28;38.55;98616.28;5056088;28;20075;-68
2022/07/31 07:56:53;;;;;;;7.07;2.00;;;;;;;30.51;38.22;98622.97;5066639;28;20020;-68
2022/07/31 07:59:19;;;;;;;4.78;1.85;;;;;;;31.26;37.18;98622.50;5055322;28;20025;-68
2022/07/31 08:01:44;;;;;;;5.57;1.85;;;;;;;31.67;35.78;98611.75;5061937;28;20025;-67
2022/07/31 08:04:10;;;;;;;10.13;1.52;;;;;;;31.71;37.31;98620.41;5059821;28;20025;-69
2022/07/31 08:06:35;;;;;;;6.55;2.00;;;;;;;31.72;37.03;98616.66;5053615;28;20024;-69
2022/07/31 08:09:01;;;;;;;5.30;1.75;;;;;;;31.37;36.87;98617.66;5056692;28;20025;-69
2022/07/31 08:11:26;;;;;;;5.00;1.65;;;;;;;30.85;36.93;98615.88;5046952;28;20092;-69
2022/07/31 08:13:52;;;;;;;5.25;2.00;;;;;;;30.46;38.33;98614.44;5046909;28;20021;-69
2022/07/31 08:16:19;;;;;;;12.60;1.85;;;;;;;30.16;39.10;98614.75;5047169;28;20032;-69
2022/07/31 08:18:44;;;;;;;4.80;1.60;;;;;;;30.23;39.51;98618.59;5054058;28;20231;-69
2022/07/31 08:21:10;;;;;;;3.70;1.63;;;;;;;30.15;39.46;98616.59;5060271;28;20067;-69
2022/07/31 08:23:35;;;;;;;8.98;2.03;;;;;;;30.04;39.76;98615.97;5056295;28;20048;-69
2022/07/31 08:26:03;;;;;;;4.03;1.52;;;;;;;29.82;39.42;98610.94;5059376;28;20025;-69
2022/07/31 08:28:28;;;;;;;3.88;1.73;;;;;;;29.96;40.23;98599.59;5065860;28;20271;-69
2022/07/31 08:30:54;;;;;;;3.80;1.33;;;;;;;29.91;41.18;98613.63;5058231;28;20032;-69
2022/07/31 08:33:20;;;;;;;4.93;1.48;;;;;;;30.40;39.80;98620.50;5066129;28;20312;-69
2022/07/31 08:35:48;;;;;;;3.35;1.60;;;;;;;30.58;39.46;98607.75;5064092;28;20097;-69
2022/07/31 08:38:15;;;;;;;5.10;1.75;;;;;;;30.59;38.82;98620.38;5046347;28;20092;-69
2022/07/31 08:40:40;;;;;;;4.38;1.65;;;;;;;30.69;39.76;98618.41;5047179;28;20021;-69
2022/07/31 08:43:05;;;;;;;3.10;1.48;;;;;;;30.92;38.29;98614.22;5052120;28;20029;-69
2022/07/31 08:45:31;;;;;;;5.85;1.85;;;;;;;31.17;37.81;98616.13;5046318;28;20088;-69
2022/07/31 08:47:59;;;;;;;4.32;1.65;;;;;;;31.57;38.12;98612.88;5046201;28;20079;-69
2022/07/31 08:50:25;;;;;;;3.25;1.80;;;;;;;31.50;37.29;98612.66;5048019;28;20029;-69
2022/07/31 08:52:53;;;;;;;5.22;1.70;;;;;;;31.65;37.43;98616.50;5065563;28;20330;-69
2022/07/31 08:55:21;;;;;;;7.32;2.10;;;;;;;31.99;37.43;98611.94;5048601;28;20029;-69
2022/07/31 08:57:47;;;;;;;3.90;2.33;;;;;;;32.16;36.09;98605.50;5046156;28;20316;-69
2022/07/31 09:00:16;;;;;;;5.15;1.63;;;;;;;32.42;36.41;98609.03;5046263;28;20063;-69
2022/07/31 09:02:42;;;;;;;2.65;1.80;;;;;;;32.68;35.10;98615.19;5065427;28;20024;-69
2022/07/31 09:05:08;;;;;;;3.72;1.65;;;;;;;32.66;36.55;98617.25;5065307;28;20025;-69
2022/07/31 09:07:34;;;;;;;9.20;2.30;;;;;;;33.00;35.52;98612.50;5047477;28;20032;-69
2022/07/31 09:10:00;;;;;;;6.78;1.85;;;;;;;33.47;36.24;98625.47;5064496;28;20036;-69
2022/07/31 09:12:27;;;;;;;7.88;1.90;;;;;;;33.55;35.03;98617.25;5056875;28;20093;-69
2022/07/31 09:14:53;;;;;;;7.53;2.00;;;;;;;33.53;34.04;98606.50;5048095;28;20021;-69
2022/07/31 09:17:33;;;;;;;5.28;1.98;;;;;;;33.65;34.06;98607.00;5048080;28;20247;-69
2022/07/31 09:19:59;;;;;;;5.70;1.92;;;;;;;34.02;33.74;98612.72;5054269;28;20083;-69
2022/07/31 09:22:27;;;;;;;4.22;2.00;;;;;;;34.82;33.87;98615.88;5056487;28;20033;-69
2022/07/31 09:24:53;;;;;;;9.35;2.08;;;;;;;34.76;32.68;98608.38;5065143;28;20358;-69
2022/07/31 09:27:19;;;;;;;6.93;1.73;;;;;;;35.12;32.96;98605.91;5064434;28;20060;-69
2022/07/31 09:29:48;;;;;;;2.58;1.70;;;;;;;36.03;32.54;98615.59;5064992;28;20024;-69
2022/07/31 09:32:16;;;;;;;6.80;2.00;;;;;;;35.59;31.53;98597.44;5056052;28;20032;-69
2022/07/31 09:34:43;;;;;;;5.85;1.80;;;;;;;36.52;31.41;98608.47;5046423;28;20055;-69
2022/07/31 09:37:18;;;;;;;7.68;1.95;;;;;;;36.98;30.70;98608.97;5045501;28;20021;-69
2022/07/31 09:39:51;;;;;;;6.47;1.95;;;;;;;37.04;31.41;98612.81;5045301;28;20032;-69
2022/07/31 09:42:18;;;;;;;3.85;1.92;;;;;;;37.16;30.23;98611.25;5053189;28;20031;-69
2022/07/31 09:44:45;;;;;;;6.35;1.95;;;;;;;36.98;30.80;98610.88;5045109;28;20419;-69
2022/07/31 09:47:26;;;;;;;5.80;1.90;;;;;;;36.96;29.60;98605.56;5062222;28;20328;-69
2022/07/31 09:49:54;;;;;;;11.25;2.30;;;;;;;36.74;30.75;98607.47;5064336;28;20025;-69
2022/07/31 09:52:20;;;;;;;8.48;1.92;;;;;;;36.68;30.54;98596.38;5046640;28;20241;-68
2022/07/31 09:54:46;;;;;;;4.93;1.88;;;;;;;37.15;29.93;98606.78;5044496;28;20032;-69
2022/07/31 09:57:13;;;;;;;9.88;2.58;;;;;;;37.03;30.50;98606.47;5044989;28;20025;-69
2022/07/31 09:59:38;;;;;;;7.15;2.10;;;;;;;36.82;29.92;98588.13;5063951;28;20020;-69
2022/07/31 10:02:05;;;;;;;5.20;2.30;;;;;;;36.51;31.62;98584.78;5051722;28;20219;-69
2022/07/31 10:04:31;;;;;;;6.13;2.20;;;;;;;37.19;30.02;98592.50;5063844;28;20020;-69
2022/07/31 10:06:57;;;;;;;5.65;2.00;;;;;;;36.52;29.92;98575.53;5062880;28;20270;-69
2022/07/31 10:09:24;;;;;;;4.70;2.17;;;;;;;36.78;30.16;98578.59;5062859;28;20091;-69
2022/07/31 10:11:51;;;;;;;7.15;1.80;;;;;;;36.89;30.21;98578.06;5056819;28;20025;-69
2022/07/31 10:14:29;;;;;;;10.15;2.40;;;;;;;36.57;31.51;98562.09;5064209;28;20334;-69
2022/07/31 10:16:57;;;;;;;5.57;2.05;;;;;;;35.14;32.53;98548.25;5063869;28;20028;-69
2022/07/31 10:19:26;;;;;;;10.10;2.45;;;;;;;36.15;31.69;98578.44;5051918;28;20178;-69
2022/07/31 10:21:58;;;;;;;8.77;1.95;;;;;;;36.76;30.68;98577.94;5052126;28;20020;-69
2022/07/31 10:24:27;;;;;;;4.07;2.05;;;;;;;36.32;30.63;98552.53;5064334;28;20027;-69
2022/07/31 10:26:56;;;;;;;10.02;1.88;;;;;;;35.34;31.59;98555.78;5061222;28;20024;-69
2022/07/31 10:29:22;;;;;;;5.95;2.15;;;;;;;34.18;32.58;98538.84;5051761;28;20217;-69
2022/07/31 10:31:47;;;;;;;9.02;2.08;;;;;;;35.40;31.89;98560.47;5044361;28;20017;-69
2022/07/31 10:34:14;;;;;;;6.43;1.70;;;;;;;36.12;30.60;98562.38;5046977;28;20021;-69
2022/07/31 10:36:44;;;;;;;8.57;2.25;;;;;;;36.38;30.35;98557.22;5055199;28;20052;-69
2022/07/31 10:39:19;;;;;;;9.77;2.10;;;;;;;36.29;30.69;98543.84;5063917;28;20021;-69
2022/07/31 10:42:05;;;;;;;7.05;2.47;;;;;;;36.27;31.36;98546.78;5063404;28;20321;-69
2022/07/31 10:44:32;;;;;;;6.25;2.25;;;;;;;36.64;30.60;98552.03;5063318;28;20028;-69
2022/07/31 10:46:58;;;;;;;5.53;1.90;;;;;;;36.96;29.63;98539.72;5062535;28;20031;-69
2022/07/31 10:49:41;;;;;;;5.57;2.15;;;;;;;37.24;29.81;98545.25;5062125;28;20021;-69
2022/07/31 10:52:06;;;;;;;4.28;2.00;;;;;;;37.27;29.49;98542.09;5063260;28;20100;-69
2022/07/31 10:54:39;;;;;;;4.22;1.85;;;;;;;37.50;29.65;98549.03;5063449;28;20032;-69
2022/07/31 10:57:05;;;;;;;12.68;2.25;;;;;;;37.57;29.59;98538.06;5046635;28;20049;-69
2022/07/31 10:59:30;;;;;;;4.78;2.17;;;;;;;36.69;30.43;98526.75;5063338;28;20213;-69
2022/07/31 11:01:56;;;;;;;6.05;1.73;;;;;;;35.92;31.20;98539.38;5055821;28;20020;-69
2022/07/31 11:04:30;;;;;;;5.20;1.70;;;;;;;36.45;29.87;98530.75;5049578;28;20035;-69
2022/07/31 11:06:57;;;;;;;6.93;1.80;;;;;;;36.48;29.23;98524.84;5042527;28;20249;-69
2022/07/31 11:09:24;;;;;;;8.32;2.00;;;;;;;36.25;29.13;98513.19;5054188;28;20323;-69
2022/07/31 11:11:50;;;;;;;3.72;1.65;;;;;;;36.86;29.10;98506.28;5043478;28;20017;-69
2022/07/31 11:14:16;;;;;;;6.05;1.80;;;;;;;36.96;28.66;98514.16;5050006;28;20390;-69
2022/07/31 11:16:52;;;;;;;7.28;1.83;;;;;;;36.24;29.63;98500.53;5062397;28;20017;-69
2022/07/31 11:19:17;;;;;;;4.22;2.05;;;;;;;35.63;30.85;98498.28;5063369;28;20343;-69
2022/07/31 11:21:43;;;;;;;18.52;2.42;;;;;;;34.53;31.77;98483.63;5062757;28;20017;-69
2022/07/31 11:24:19;;;;;;;8.30;1.98;;;;;;;34.28;33.02;98482.09;5061981;28;20021;-69
2022/07/31 11:26:52;;;;;;;328.10;15.27;;;;;;;34.12;32.95;98480.34;5042728;28;20068;-69
2022/07/31 11:29:38;;;;;;;11.93;2.38;;;;;;;33.22;34.35;98474.56;5062150;28;20036;-69
2022/07/31 11:32:03;;;;;;;10.80;1.95;;;;;;;32.65;34.36;98459.31;5062884;28;20092;-69
2022/07/31 11:34:29;;;;;;;30.70;3.33;;;;;;;32.83;33.71;98469.00;5062651;28;20312;-69
2022/07/31 11:36:55;;;;;;;15.70;2.53;;;;;;;32.91;33.12;98479.94;5062925;28;20024;-69